createdAt,value
2022-09-12T04:01:25.385Z,98814.69
2022-09-12T04:05:37.110Z,98816.13
2022-09-12T04:09:48.835Z,98806.31
2022-09-12T04:14:01.389Z,98805.31
2022-09-12T04:18:12.870Z,98802.56
2022-09-12T04:22:24.364Z,98806.97
2022-09-12T04:26:35.867Z,98805.31
2022-09-12T04:30:47.400Z,98802.72
2022-09-12T04:34:58.955Z,98798.47
2022-09-12T04:39:11.275Z,98799.75
2022-09-12T04:43:22.755Z,98800.75
2022-09-12T04:47:34.366Z,98805.94
2022-09-12T04:51:46.662Z,98793.84
2022-09-12T04:56:02.093Z,98793.16
2022-09-12T05:00:14.849Z,98790.84
2022-09-12T05:04:26.409Z,98788.53
2022-09-12T05:08:38.409Z,98791.78
2022-09-12T05:12:49.874Z,98791.06
2022-09-12T05:17:02.180Z,98787.75
2022-09-12T05:21:16.010Z,98795.09
2022-09-12T05:25:27.476Z,98797.53
2022-09-12T05:29:38.939Z,98803.31
2022-09-12T05:33:52.021Z,98804.13
2022-09-12T05:38:04.101Z,98813.19
2022-09-12T05:42:15.637Z,98795.88
2022-09-12T05:46:29.429Z,98788.63
2022-09-12T05:50:42.392Z,98783.66
2022-09-12T05:54:53.911Z,98790.19
2022-09-12T05:59:08.304Z,98792.44
2022-09-12T06:03:19.778Z,98795.97
2022-09-12T06:07:32.601Z,98795.28
2022-09-12T06:11:45.666Z,98793.13
2022-09-12T06:16:09.854Z,98793.44
2022-09-12T06:20:21.557Z,98794.88
2022-09-12T06:24:33.014Z,98805.38
2022-09-12T06:28:45.153Z,98804.03
2022-09-12T06:32:56.998Z,98804.03
2022-09-12T06:37:08.470Z,98811.88
2022-09-12T06:41:19.963Z,98810.97
2022-09-12T06:45:31.463Z,98809.63
2022-09-12T06:49:42.991Z,98812.97
2022-09-12T06:53:57.043Z,98798.72
2022-09-12T06:58:08.510Z,98797.91
2022-09-12T07:02:20.061Z,98799.94
2022-09-12T07:06:36.934Z,98797.00
2022-09-12T07:10:48.560Z,98792.78
2022-09-12T07:15:00.137Z,98794.34
2022-09-12T07:19:12.045Z,98800.41
2022-09-12T07:23:23.637Z,98808.78
2022-09-12T07:27:35.144Z,98804.25
2022-09-12T07:31:46.643Z,98808.66
2022-09-12T07:36:06.157Z,98803.31
2022-09-12T07:40:17.687Z,98800.88
2022-09-12T07:44:29.584Z,98800.72
2022-09-12T07:48:41.071Z,98809.13
2022-09-12T07:52:55.012Z,98810.44
2022-09-12T07:57:06.675Z,98800.00
2022-09-12T08:01:25.045Z,98804.34
2022-09-12T08:05:37.087Z,98798.47
2022-09-12T08:09:48.623Z,98793.19
2022-09-12T08:14:02.871Z,98799.28
2022-09-12T08:18:15.063Z,98797.63
2022-09-12T08:22:26.570Z,98804.56
2022-09-12T08:26:38.121Z,98795.97
2022-09-12T08:30:50.090Z,98796.31
2022-09-12T08:35:01.715Z,98799.56
2022-09-12T08:39:14.395Z,98805.63
2022-09-12T08:43:43.250Z,98802.72
2022-09-12T08:47:56.454Z,98805.91
2022-09-12T08:52:17.111Z,98804.66
2022-09-12T08:56:33.048Z,98795.16
2022-09-12T09:01:08.943Z,98806.06
2022-09-12T09:05:31.613Z,98799.16
2022-09-12T09:10:01.618Z,98792.91
2022-09-12T09:14:41.415Z,98795.28
2022-09-12T09:18:55.794Z,98792.09
2022-09-12T09:23:17.775Z,98787.44
2022-09-12T09:27:43.966Z,98781.53
2022-09-12T09:31:59.248Z,98781.44
2022-09-12T09:36:20.950Z,98769.22
2022-09-12T09:40:52.773Z,98767.78
2022-09-12T09:45:15.552Z,98772.81
2022-09-12T09:49:30.119Z,98768.00
2022-09-12T09:53:54.814Z,98766.28
2022-09-12T09:58:06.593Z,98766.16
2022-09-12T10:02:24.287Z,98769.41
2022-09-12T10:06:37.871Z,98760.88
2022-09-12T10:11:04.529Z,98753.75
2022-09-12T10:15:19.400Z,98755.13
2022-09-12T10:19:36.827Z,98751.88
2022-09-12T10:23:53.900Z,98745.66
2022-09-12T10:28:06.553Z,98745.13
2022-09-12T10:32:36.194Z,98731.50
2022-09-12T10:36:47.856Z,98726.00
2022-09-12T10:41:11.400Z,98712.34
2022-09-12T10:45:31.976Z,98712.22
2022-09-12T10:49:43.605Z,98707.38
2022-09-12T10:53:59.870Z,98705.59
2022-09-12T10:58:18.178Z,98702.06
2022-09-12T11:02:48.134Z,98699.16
2022-09-12T11:07:21.397Z,98702.25
2022-09-12T11:11:48.520Z,98701.19
2022-09-12T11:16:17.032Z,98694.25
2022-09-12T11:20:35.828Z,98688.75
2022-09-12T11:25:18.574Z,98689.38
2022-09-12T11:29:51.093Z,98688.69
2022-09-12T11:34:08.972Z,98688.38
2022-09-12T11:38:47.995Z,98688.06
2022-09-12T11:43:10.093Z,98693.88
2022-09-12T11:47:23.266Z,98687.25
2022-09-12T11:51:37.614Z,98680.56
2022-09-12T11:56:02.679Z,98678.94
2022-09-12T12:00:28.759Z,98680.38
2022-09-12T12:04:54.372Z,98677.63
2022-09-12T12:09:05.917Z,98671.81
2022-09-12T12:13:42.262Z,98674.69
2022-09-12T12:18:06.998Z,98648.03
2022-09-12T12:22:22.362Z,98650.56
2022-09-12T12:26:42.448Z,98642.84
2022-09-12T12:30:53.998Z,98649.34
2022-09-12T12:35:38.444Z,98640.16
2022-09-12T12:39:50.918Z,98636.28
2022-09-12T12:44:40.757Z,98630.22
2022-09-12T12:48:56.670Z,98624.09
2022-09-12T12:53:22.528Z,98627.28
2022-09-12T12:57:39.491Z,98621.94
2022-09-12T13:01:55.949Z,98618.53
2022-09-12T13:06:19.691Z,98615.66
2022-09-12T13:10:31.450Z,98612.72
2022-09-12T13:14:44.434Z,98611.63
2022-09-12T13:19:01.250Z,98612.91
2022-09-12T13:23:43.116Z,98611.41
2022-09-12T13:28:12.867Z,98594.41
2022-09-12T13:32:24.908Z,98590.72
2022-09-12T13:36:45.295Z,98592.06
2022-09-12T13:41:34.055Z,98581.66
2022-09-12T13:45:47.187Z,98581.16
2022-09-12T13:50:00.328Z,98577.97
2022-09-12T13:54:22.515Z,98573.16
2022-09-12T13:58:35.941Z,98566.72
2022-09-12T14:03:10.629Z,98558.13
2022-09-12T14:07:25.615Z,98553.75
2022-09-12T14:11:38.030Z,98553.78
2022-09-12T14:15:52.953Z,98550.03
2022-09-12T14:20:24.243Z,98536.66
2022-09-12T14:24:35.717Z,98535.34
2022-09-12T14:28:47.829Z,98534.84
2022-09-12T14:33:11.529Z,98528.16
2022-09-12T14:37:24.912Z,98528.44
2022-09-12T14:41:40.228Z,98530.53
2022-09-12T14:45:54.236Z,98524.69
2022-09-12T14:50:20.074Z,98519.09
2022-09-12T14:54:32.884Z,98518.06
2022-09-12T14:58:44.662Z,98515.16
2022-09-12T15:03:23.475Z,98509.78
2022-09-12T15:07:36.298Z,98508.72
2022-09-12T15:11:47.759Z,98505.25
2022-09-12T15:15:59.781Z,98502.56
2022-09-12T15:20:13.197Z,98508.97
2022-09-12T15:24:24.648Z,98503.56
2022-09-12T15:28:36.121Z,98500.38
2022-09-12T15:32:47.733Z,98501.97
2022-09-12T15:36:59.188Z,98496.91
2022-09-12T15:41:17.555Z,98502.50
2022-09-12T15:45:34.619Z,98500.34
2022-09-12T15:49:46.061Z,98500.06
2022-09-12T15:53:57.526Z,98495.81
2022-09-12T15:58:09.080Z,98492.31
2022-09-12T16:02:20.594Z,98487.47
2022-09-12T16:06:37.264Z,98484.25
2022-09-12T16:10:54.076Z,98486.09
2022-09-12T16:15:06.013Z,98486.63
2022-09-12T16:19:17.470Z,98471.97
2022-09-12T16:23:28.931Z,98473.53
2022-09-12T16:27:40.688Z,98473.53
2022-09-12T16:31:52.251Z,98473.22
2022-09-12T16:36:09.370Z,98476.94
2022-09-12T16:40:20.860Z,98470.00
2022-09-12T16:44:32.366Z,98464.34
2022-09-12T16:48:49.582Z,98455.84
2022-09-12T16:53:03.177Z,98466.69
2022-09-12T16:57:14.775Z,98463.50
2022-09-12T17:01:26.942Z,98464.25
2022-09-12T17:05:39.017Z,98465.78
2022-09-12T17:09:51.774Z,98467.78
2022-09-12T17:14:06.913Z,98483.16
2022-09-12T17:18:18.825Z,98473.63
2022-09-12T17:22:30.297Z,98469.97
2022-09-12T17:26:41.917Z,98466.22
2022-09-12T17:30:59.433Z,98464.53
2022-09-12T17:35:11.468Z,98470.97
2022-09-12T17:39:22.941Z,98475.38
2022-09-12T17:43:37.839Z,98464.69
2022-09-12T17:47:49.644Z,98453.31
2022-09-12T17:52:01.902Z,98471.06
2022-09-12T17:56:13.397Z,98477.75
2022-09-12T18:00:44.824Z,98469.59
2022-09-12T18:04:56.325Z,98469.31
2022-09-12T18:09:09.548Z,98473.34
2022-09-12T18:13:21.028Z,98476.22
2022-09-12T18:17:33.169Z,98474.13
2022-09-12T18:21:44.794Z,98474.75
2022-09-12T18:26:04.881Z,98478.06
2022-09-12T18:30:21.402Z,98477.47
2022-09-12T18:34:33.377Z,98498.41
2022-09-12T18:38:45.408Z,98499.84
2022-09-12T18:42:56.910Z,98486.50
2022-09-12T18:47:09.290Z,98487.88
2022-09-12T18:51:32.756Z,98494.38
2022-09-12T18:55:44.278Z,98498.09
2022-09-12T18:59:59.466Z,98506.97
2022-09-12T19:04:12.635Z,98507.09
2022-09-12T19:08:24.097Z,98498.50
2022-09-12T19:12:35.901Z,98491.50
2022-09-12T19:16:47.586Z,98494.03
2022-09-12T19:20:59.054Z,98497.34
2022-09-12T19:25:10.528Z,98499.44
2022-09-12T19:29:22.021Z,98501.09
2022-09-12T19:33:33.517Z,98489.25
2022-09-12T19:37:45.421Z,98472.94
2022-09-12T19:41:56.920Z,98470.53
2022-09-12T19:46:08.515Z,98470.34
2022-09-12T19:50:20.030Z,98478.25
2022-09-12T19:54:31.513Z,98469.81
2022-09-12T19:58:45.309Z,98464.00
2022-09-12T20:02:56.825Z,98458.34
2022-09-12T20:07:08.326Z,98453.75
2022-09-12T20:11:21.732Z,98439.59
2022-09-12T20:15:33.564Z,98435.56
2022-09-12T20:19:45.084Z,98438.84
2022-09-12T20:24:12.074Z,98427.50
2022-09-12T20:28:23.577Z,98424.69
2022-09-12T20:32:35.080Z,98423.91
2022-09-12T20:36:47.564Z,98427.75
2022-09-12T20:41:01.594Z,98443.38
2022-09-12T20:45:13.066Z,98435.69
2022-09-12T20:49:24.575Z,98439.16
2022-09-12T20:53:36.042Z,98438.16
2022-09-12T20:57:49.924Z,98455.97
2022-09-12T21:02:01.474Z,98450.72
2022-09-12T21:06:16.839Z,98451.94
2022-09-12T21:10:29.335Z,98444.25
2022-09-12T21:14:40.829Z,98443.06
2022-09-12T21:18:55.192Z,98447.72
2022-09-12T21:23:06.661Z,98463.69
2022-09-12T21:27:18.155Z,98456.59
